Time;durP1;ratioP1;P1;durP2;ratioP2;P2;SDS_P1;SDS_P2;PMS_P1;PMS_P2;Temp;Humidity;BMP_temperature;BMP_pressure;BME280_temperature;BME280_humidity;BME280_pressure;Samples;Min_cycle;Max_cycle;Signal;HPM_P1;HPM_P2
2022/02/25 00:03:05;;;;;;;2.00;0.90;;;9.50;68.70;;;;;;20582791;28;20101;-73
2022/02/25 00:13:06;;;;;;;2.92;0.40;;;9.60;68.70;;;;;;20598905;28;20301;-74
2022/02/25 00:23:07;;;;;;;2.33;0.50;;;9.50;68.70;;;;;;20582170;28;20045;-73
2022/02/25 00:33:07;;;;;;;1.77;0.63;;;9.50;68.60;;;;;;20581263;28;20050;-75
2022/02/25 00:43:08;;;;;;;2.92;0.25;;;9.50;68.70;;;;;;20597245;28;20050;-73
2022/02/25 00:53:08;;;;;;;5.57;0.77;;;9.50;68.60;;;;;;20598726;28;20486;-72
2022/02/25 01:03:09;;;;;;;0.73;0.40;;;9.40;68.50;;;;;;20593318;28;20031;-72
2022/02/25 01:13:10;;;;;;;1.67;0.70;;;9.50;68.50;;;;;;20592355;28;20389;-72
2022/02/25 01:23:10;;;;;;;1.30;0.70;;;9.50;68.50;;;;;;20593907;28;20035;-74
2022/02/25 01:33:11;;;;;;;2.30;0.65;;;9.50;68.40;;;;;;20594621;28;20304;-73
2022/02/25 01:43:12;;;;;;;1.75;0.65;;;9.40;68.30;;;;;;20593075;28;20037;-72
2022/02/25 01:53:13;;;;;;;2.40;0.50;;;9.40;68.20;;;;;;20591823;28;20403;-72
2022/02/25 02:03:13;;;;;;;0.88;0.50;;;9.40;68.20;;;;;;20591023;28;20039;-73
2022/02/25 02:13:14;;;;;;;2.03;0.70;;;9.40;68.10;;;;;;20606925;28;20506;-73
2022/02/25 02:23:14;;;;;;;1.73;0.40;;;9.40;68.10;;;;;;20589836;28;20302;-73
2022/02/25 02:33:15;;;;;;;0.85;0.45;;;9.40;68.10;;;;;;20605082;28;20067;-73
2022/02/25 02:43:15;;;;;;;1.50;0.47;;;9.40;68.00;;;;;;20588119;28;20039;-72
2022/02/25 02:53:16;;;;;;;1.38;0.40;;;9.40;67.90;;;;;;20603700;28;20034;-73
2022/02/25 03:03:17;;;;;;;2.55;0.50;;;9.40;67.90;;;;;;20586660;28;20069;-73
2022/02/25 03:13:17;;;;;;;0.82;0.30;;;9.40;67.90;;;;;;20601952;28;20668;-73
2022/02/25 03:23:18;;;;;;;1.80;1.08;;;9.30;67.80;;;;;;20585001;28;20039;-72
2022/02/25 03:33:18;;;;;;;3.28;0.95;;;9.40;67.80;;;;;;20582077;28;20042;-72
2022/02/25 03:43:19;;;;;;;1.55;0.57;;;9.30;67.60;;;;;;20599616;28;20030;-72
2022/02/25 03:53:20;;;;;;;1.38;0.57;;;9.30;67.50;;;;;;20583327;28;20126;-73
2022/02/25 04:03:20;;;;;;;1.52;0.82;;;9.30;67.50;;;;;;20582496;28;20315;-73
2022/02/25 04:13:21;;;;;;;0.90;0.52;;;9.40;67.50;;;;;;20598650;28;20039;-74
2022/02/25 04:23:22;;;;;;;6.07;0.65;;;9.30;67.40;;;;;;20582710;28;20034;-73
2022/02/25 04:33:23;;;;;;;1.42;0.38;;;9.30;67.30;;;;;;20603794;28;20120;-72
2022/02/25 04:43:24;;;;;;;4.43;0.60;;;9.30;67.20;;;;;;20598438;28;20030;-73
2022/02/25 04:53:25;;;;;;;0.73;0.50;;;9.30;67.30;;;;;;20612786;28;20061;-73
2022/02/25 05:03:25;;;;;;;3.83;0.80;;;9.30;67.20;;;;;;20595626;28;20050;-72
2022/02/25 05:13:26;;;;;;;2.75;0.60;;;9.30;67.20;;;;;;20594139;28;20067;-74
2022/02/25 05:23:27;;;;;;;1.80;0.70;;;9.20;67.10;;;;;;20610588;28;20077;-78
2022/02/25 05:33:27;;;;;;;4.82;0.65;;;9.30;67.20;;;;;;20609929;28;20514;-75
2022/02/25 05:43:28;;;;;;;3.60;0.70;;;9.20;67.10;;;;;;20579323;28;20035;-69
2022/02/25 05:53:28;;;;;;;0.80;0.37;;;9.30;67.20;;;;;;20530411;28;20659;-72
2022/02/25 06:03:29;;;;;;;1.30;0.50;;;9.20;67.10;;;;;;20560061;28;20298;-76
2022/02/25 06:13:30;;;;;;;2.50;0.90;;;9.20;67.00;;;;;;20589271;28;20038;-73
2022/02/25 06:23:30;;;;;;;2.60;0.95;;;9.20;66.90;;;;;;20579181;28;20038;-73
2022/02/25 06:33:31;;;;;;;3.17;0.88;;;9.20;66.80;;;;;;20559788;28;20392;-71
2022/02/25 06:43:31;;;;;;;1.35;0.73;;;9.20;66.70;;;;;;20601572;28;20553;-73
2022/02/25 06:53:32;;;;;;;1.63;1.10;;;9.20;66.70;;;;;;20534956;28;20053;-71
2022/02/25 07:03:33;;;;;;;4.55;1.02;;;9.20;66.70;;;;;;20583920;28;20352;-71
2022/02/25 07:13:33;;;;;;;3.67;0.60;;;9.20;66.70;;;;;;20600918;28;20042;-71
2022/02/25 07:23:34;;;;;;;2.20;0.90;;;9.20;66.60;;;;;;20584210;28;20034;-73
2022/02/25 07:33:35;;;;;;;5.18;1.08;;;9.10;66.50;;;;;;20589733;28;20039;-73
2022/02/25 07:43:35;;;;;;;3.70;0.98;;;9.20;66.50;;;;;;20503114;28;20043;-72
2022/02/25 07:53:36;;;;;;;1.80;0.77;;;9.10;66.50;;;;;;20592028;28;20134;-73
2022/02/25 08:03:36;;;;;;;3.30;1.48;;;9.10;66.50;;;;;;20532954;28;20023;-74
2022/02/25 08:13:37;;;;;;;1.55;0.82;;;9.20;66.50;;;;;;20580966;28;20047;-71
2022/02/25 08:23:38;;;;;;;1.40;0.70;;;9.10;66.30;;;;;;20576992;28;20027;-74
2022/02/25 08:33:39;;;;;;;1.17;0.60;;;9.20;66.40;;;;;;20595969;28;20546;-75
2022/02/25 08:43:39;;;;;;;6.85;1.40;;;9.20;66.50;;;;;;20596932;28;20027;-74
2022/02/25 08:53:40;;;;;;;4.18;0.80;;;9.20;66.40;;;;;;20595204;28;20082;-75
2022/02/25 09:03:40;;;;;;;2.33;0.70;;;9.10;66.40;;;;;;20595731;28;20054;-75
2022/02/25 09:13:41;;;;;;;3.80;1.20;;;9.20;66.40;;;;;;20563564;28;20049;-76
2022/02/25 09:23:42;;;;;;;2.22;0.68;;;9.20;66.40;;;;;;20606725;28;20034;-76
2022/02/25 09:33:43;;;;;;;4.22;1.00;;;9.10;66.20;;;;;;20558263;28;20126;-76
2022/02/25 09:43:43;;;;;;;8.32;1.15;;;9.20;66.20;;;;;;20591202;28;20619;-76
2022/02/25 09:53:44;;;;;;;5.82;0.85;;;9.10;66.10;;;;;;20585948;28;20400;-77
2022/02/25 10:03:51;;;;;;;2.20;0.98;;;9.10;66.10;;;;;;20550226;28;20034;-75
2022/02/25 10:14:08;;;;;;;4.30;0.90;;;9.10;66.10;;;;;;20606336;28;20227;-76
2022/02/25 10:24:09;;;;;;;4.20;1.00;;;9.20;66.00;;;;;;20589153;28;20182;-76
2022/02/25 10:34:16;;;;;;;3.28;0.90;;;9.20;66.10;;;;;;20522788;28;20134;-75
2022/02/25 10:44:38;;;;;;;7.63;1.67;;;9.10;66.00;;;;;;20562550;28;20050;-75
2022/02/25 10:54:39;;;;;;;3.47;1.20;;;9.10;66.10;;;;;;20573460;28;20123;-77
2022/02/25 11:04:58;;;;;;;4.68;1.20;;;9.20;66.20;;;;;;20515709;28;20033;-78
2022/02/25 11:15:00;;;;;;;2.58;0.93;;;9.10;66.20;;;;;;20580017;28;20455;-77
2022/02/25 11:25:00;;;;;;;3.05;1.00;;;9.10;66.20;;;;;;21043951;22;20383;-81
2022/02/25 11:35:14;;;;;;;1.92;1.13;;;9.10;66.20;;;;;;20714075;28;20030;-76
2022/02/25 11:45:19;;;;;;;6.63;1.75;;;9.10;66.20;;;;;;20727977;28;20472;-80
2022/02/25 11:55:23;;;;;;;5.60;1.25;;;9.10;66.20;;;;;;20746430;28;20049;-77
2022/02/25 12:05:25;;;;;;;4.90;1.02;;;9.10;66.20;;;;;;20753630;28;20052;-73
2022/02/25 12:15:39;;;;;;;2.38;0.95;;;9.10;66.30;;;;;;20768592;28;20034;-74
2022/02/25 12:25:43;;;;;;;7.10;1.50;;;9.10;66.30;;;;;;20695463;28;20037;-73
2022/02/25 12:35:45;;;;;;;5.22;1.73;;;9.10;66.30;;;;;;20693744;28;20046;-73
2022/02/25 12:45:46;;;;;;;7.10;1.30;;;9.10;66.30;;;;;;20691380;28;20045;-72
2022/02/25 12:55:57;;;;;;;6.68;1.10;;;9.10;66.30;;;;;;20719653;28;20375;-71
2022/02/25 13:05:57;;;;;;;2.40;1.00;;;9.20;66.40;;;;;;20742823;28;20124;-74
2022/02/25 13:16:12;;;;;;;7.30;2.17;;;9.20;66.60;;;;;;20667831;28;20124;-75
2022/02/25 13:26:18;;;;;;;4.50;1.42;;;9.20;66.60;;;;;;20660811;28;20480;-77
2022/02/25 13:36:20;;;;;;;12.38;1.63;;;9.20;66.40;;;;;;20733689;28;20461;-78
2022/02/25 13:46:30;;;;;;;6.82;1.73;;;9.20;66.40;;;;;;20756177;28;20111;-78
2022/02/25 13:56:35;;;;;;;6.13;1.60;;;9.10;66.30;;;;;;20723387;28;20490;-82
2022/02/25 14:06:36;;;;;;;6.75;1.70;;;9.20;66.40;;;;;;20693900;28;20097;-73
2022/02/25 14:16:37;;;;;;;5.85;1.20;;;9.20;66.70;;;;;;20674575;28;20053;-76
2022/02/25 14:26:41;;;;;;;3.25;0.90;;;9.20;67.00;;;;;;20640164;28;20129;-76
2022/02/25 14:36:52;;;;;;;2.33;1.00;;;9.20;67.20;;;;;;20715933;28;20037;-74
2022/02/25 14:46:53;;;;;;;4.75;0.70;;;9.20;67.40;;;;;;20751816;28;20548;-76
2022/02/25 14:56:54;;;;;;;1.88;0.43;;;9.20;67.50;;;;;;20751144;28;20037;-78
2022/02/25 15:06:55;;;;;;;2.40;0.82;;;9.20;67.70;;;;;;20735344;28;20069;-76
2022/02/25 15:16:55;;;;;;;2.42;0.88;;;9.20;67.90;;;;;;20750272;28;20034;-74
2022/02/25 15:26:57;;;;;;;1.98;0.95;;;9.20;68.10;;;;;;20734341;28;20119;-77
2022/02/25 15:36:58;;;;;;;2.85;0.70;;;9.20;68.20;;;;;;20777935;28;20389;-76
2022/02/25 15:46:59;;;;;;;1.20;0.32;;;9.20;68.30;;;;;;20792775;28;20036;-78
2022/02/25 15:56:59;;;;;;;5.80;1.30;;;9.20;68.40;;;;;;20744863;28;20038;-78
2022/02/25 16:07:00;;;;;;;3.75;0.70;;;9.20;68.40;;;;;;20708742;28;20461;-80
2022/02/25 16:17:01;;;;;;;4.18;0.60;;;9.20;68.40;;;;;;20722108;28;20046;-76
2022/02/25 16:27:01;;;;;;;1.42;0.57;;;9.20;68.50;;;;;;20731848;28;20057;-75
2022/02/25 16:37:02;;;;;;;1.80;0.57;;;9.20;68.50;;;;;;20761501;28;20030;-77
2022/02/25 16:47:03;;;;;;;1.05;0.60;;;9.20;68.60;;;;;;20758217;28;20350;-77
2022/02/25 16:57:05;;;;;;;1.20;0.40;;;9.20;68.70;;;;;;20737022;28;20473;-75
2022/02/25 17:07:06;;;;;;;1.27;0.50;;;9.20;68.70;;;;;;20750655;28;20385;-75
2022/02/25 17:17:07;;;;;;;3.30;0.95;;;9.10;68.80;;;;;;20816405;28;20095;-75
2022/02/25 17:27:08;;;;;;;1.80;0.75;;;9.10;68.80;;;;;;20807918;28;20405;-76
2022/02/25 17:37:08;;;;;;;1.58;0.60;;;9.10;68.90;;;;;;20732819;28;20030;-74
2022/02/25 17:47:09;;;;;;;2.10;0.70;;;9.10;69.00;;;;;;20725230;28;20042;-75
2022/02/25 17:57:10;;;;;;;7.75;0.98;;;9.20;69.10;;;;;;20756467;28;20088;-74
2022/02/25 18:07:10;;;;;;;3.33;1.42;;;9.10;69.20;;;;;;20755861;28;20470;-74
2022/02/25 18:17:11;;;;;;;0.90;0.50;;;9.10;69.30;;;;;;20708307;28;20108;-74
2022/02/25 18:27:11;;;;;;;0.93;0.40;;;9.10;69.30;;;;;;20675397;28;20053;-76
2022/02/25 18:37:12;;;;;;;0.77;0.38;;;9.10;69.20;;;;;;20737533;28;20308;-75
2022/02/25 18:47:13;;;;;;;1.33;0.45;;;9.10;69.10;;;;;;20834114;28;20697;-74
2022/02/25 18:57:14;;;;;;;1.95;0.73;;;9.00;69.10;;;;;;20833244;28;20388;-75
2022/02/25 19:07:14;;;;;;;5.13;0.70;;;9.10;69.10;;;;;;20831601;28;20701;-75
2022/02/25 19:17:16;;;;;;;5.60;0.80;;;9.00;69.10;;;;;;20815109;28;20292;-77
2022/02/25 19:27:16;;;;;;;2.22;1.10;;;9.10;69.10;;;;;;20805492;28;20425;-75
2022/02/25 19:37:17;;;;;;;0.63;0.35;;;9.00;69.00;;;;;;20732610;28;20044;-75
2022/02/25 19:47:22;;;;;;;3.20;0.90;;;9.10;69.10;;;;;;20749130;28;20061;-75
2022/02/25 19:57:23;;;;;;;1.88;0.98;;;9.10;69.10;;;;;;20732075;28;20300;-75
2022/02/25 20:07:26;;;;;;;4.55;1.00;;;9.00;69.00;;;;;;20730531;28;20385;-74
2022/02/25 20:17:26;;;;;;;2.95;1.20;;;9.10;69.10;;;;;;20731309;28;20033;-77
2022/02/25 20:27:27;;;;;;;4.13;0.95;;;9.10;69.10;;;;;;20746560;28;20466;-75
2022/02/25 20:37:28;;;;;;;4.40;2.28;;;9.00;69.10;;;;;;20730156;28;20041;-75
2022/02/25 20:47:28;;;;;;;4.00;1.25;;;9.00;69.10;;;;;;20713793;28;20149;-75
2022/02/25 20:57:29;;;;;;;4.28;1.02;;;9.00;69.10;;;;;;20744523;28;20462;-75
2022/02/25 21:07:30;;;;;;;6.63;2.05;;;9.00;69.00;;;;;;20727889;28;20133;-75
2022/02/25 21:17:30;;;;;;;4.55;1.35;;;9.00;69.00;;;;;;20753019;28;20088;-76
2022/02/25 21:27:31;;;;;;;4.93;1.13;;;9.00;69.00;;;;;;20745057;28;20374;-76
2022/02/25 21:37:31;;;;;;;3.05;0.90;;;9.00;69.00;;;;;;20758840;28;20088;-76
2022/02/25 21:47:32;;;;;;;3.95;1.02;;;9.00;69.00;;;;;;20741720;28;20052;-78
2022/02/25 21:57:33;;;;;;;3.65;1.02;;;9.00;68.90;;;;;;20757248;28;20375;-75
2022/02/25 22:07:33;;;;;;;4.47;1.03;;;9.00;68.90;;;;;;20756791;28;20062;-75
2022/02/25 22:17:34;;;;;;;6.80;1.20;;;9.00;68.90;;;;;;20739553;28;20297;-77
2022/02/25 22:27:34;;;;;;;6.43;1.17;;;8.90;68.80;;;;;;20754662;28;20133;-76
2022/02/25 22:37:35;;;;;;;3.63;1.07;;;8.90;68.80;;;;;;20754472;28;20099;-75
2022/02/25 22:47:36;;;;;;;5.20;1.50;;;8.90;68.80;;;;;;20752632;28;20293;-74
2022/02/25 23:07:55;;;;;;;4.90;1.67;;;8.90;68.80;;;;;;20751363;28;20034;-75
2022/02/25 23:17:56;;;;;;;7.15;1.13;;;8.90;68.70;;;;;;20751353;28;20500;-75
2022/02/25 23:27:56;;;;;;;7.40;1.83;;;8.90;68.70;;;;;;20749879;28;20033;-78
2022/02/25 23:37:57;;;;;;;6.30;1.50;;;8.90;68.70;;;;;;20731681;28;20045;-76
2022/02/25 23:47:57;;;;;;;6.95;1.70;;;8.90;68.60;;;;;;20748175;28;20343;-80
2022/02/25 23:57:58;;;;;;;9.60;1.67;;;8.90;68.60;;;;;;20730776;28;20708;-75
